Date,TemperatureHighF,TemperatureAvgF,TemperatureLowF,DewpointHighF,DewpointAvgF,DewpointLowF,HumidityHigh,HumidityAvg,HumidityLow,PressureMaxIn,PressureMinIn,WindSpeedMaxMPH,WindSpeedAvgMPH,GustSpeedMaxMPH,PrecipitationSumIn
2013-1-1,35,18,10,21,14,7,92,83,53,30.67,30.54,5,1,8,0.00
2013-1-2,18,11,7,14,9,4,91,88,83,30.66,30.59,6,1,7,0.00
2013-1-3,33,17,3,19,10,0,93,76,51,30.59,30.42,10,2,15,0.00
2013-1-4,44,27,15,29,19,12,88,73,50,30.50,30.35,14,2,17,0.00
2013-1-5,31,26,19,26,21,16,89,82,68,30.36,30.27,8,1,14,0.00
2013-1-6,42,33,24,30,26,20,89,78,62,30.29,30.14,18,3,22,0.00
2013-1-7,47,40,35,38,33,28,89,77,65,30.18,30.05,20,7,27,0.00
2013-1-8,49,42,36,39,36,31,85,78,67,30.18,30.00,20,8,24,0.00
2013-1-9,45,37,25,36,30,21,87,76,62,30.00,29.73,21,5,31,0.02
2013-1-10,34,26,22,26,20,17,88,79,60,30.09,29.89,12,3,16,0.02
2013-1-11,30,21,15,18,15,12,88,77,56,30.34,30.07,8,2,15,0.00
2013-1-12,29,17,10,15,10,6,84,74,47,30.47,30.33,12,4,14,0.00
2013-1-13,31,17,7,12,7,2,82,67,36,30.55,30.44,15,5,17,0.00
2013-1-14,42,26,15,24,14,6,76,62,41,30.57,30.46,15,6,19,0.00
2013-1-15,53,36,24,27,22,16,77,59,33,30.66,30.54,14,5,18,0.00
2013-1-16,55,38,28,26,21,18,70,52,23,30.63,30.50,18,8,21,0.00
2013-1-17,55,36,26,26,22,17,83,58,23,30.52,30.39,11,3,13,0.00
2013-1-18,55,36,24,26,22,19,83,57,29,30.43,30.35,11,3,17,0.00
2013-1-19,59,38,28,27,21,17,72,54,20,30.43,30.34,12,4,17,0.00
2013-1-20,51,34,24,22,19,17,74,56,26,30.46,30.36,10,2,12,0.00
2013-1-21,55,36,24,21,17,10,74,49,17,30.38,30.22,17,4,20,0.00
2013-1-22,50,33,23,24,19,14,79,59,31,30.24,30.09,10,2,13,0.00
2013-1-23,53,40,32,36,28,20,84,64,37,30.12,29.88,12,2,22,0.00
2013-1-24,52,42,31,39,35,29,96,77,55,30.17,30.10,18,4,21,0.00
2013-1-25,46,42,36,41,38,33,96,86,78,30.14,29.91,16,4,19,0.01
2013-1-26,46,34,29,35,26,22,94,73,44,30.05,29.91,13,3,17,0.01
2013-1-27,39,32,26,27,24,20,87,73,49,30.13,30.04,12,4,15,0.00
2013-1-28,37,34,31,28,26,24,82,73,64,30.15,30.05,12,3,20,0.00
2013-1-29,49,40,36,35,30,28,77,69,56,30.39,30.11,13,5,24,0.00
2013-1-30,49,41,37,36,33,28,82,71,60,30.43,30.38,13,5,15,0.00
2013-1-31,51,38,31,35,31,28,90,77,51,30.39,30.29,12,4,15,0.00
2013-2-1,53,37,28,35,29,24,89,74,43,30.43,30.32,11,3,16,0.00
2013-2-2,53,36,24,34,29,22,92,77,49,30.45,30.31,10,2,11,0.00
2013-2-3,59,43,28,32,27,24,88,58,29,30.32,30.14,11,4,14,0.00
2013-2-4,55,45,36,29,25,20,63,46,29,30.15,29.91,12,3,15,0.00
2013-2-5,48,40,32,33,26,19,82,58,40,30.04,29.88,21,4,25,0.00
2013-2-6,50,38,32,28,26,22,78,62,35,30.12,29.91,15,4,21,0.00
2013-2-7,40,34,27,29,25,20,89,71,51,30.09,29.88,11,2,17,0.00
2013-2-8,41,31,22,26,22,17,92,70,41,30.22,30.09,11,2,19,0.00
2013-2-9,44,31,22,30,23,16,87,74,54,30.28,30.19,11,3,14,0.00
2013-2-10,45,34,25,29,24,21,93,69,39,30.33,30.25,9,2,12,0.00
2013-2-11,51,36,27,32,26,22,85,67,39,30.36,30.23,16,6,18,0.00
2013-2-12,52,39,32,34,29,25,87,70,44,30.44,30.35,12,4,15,0.00
2013-2-13,48,39,32,35,31,28,89,74,56,30.45,30.37,12,3,16,0.00
2013-2-14,54,40,30,36,32,27,91,76,49,30.54,30.45,11,4,13,0.00
2013-2-15,59,42,29,38,33,27,94,73,43,30.51,30.26,9,3,13,0.00
2013-2-16,56,40,27,36,27,20,86,62,31,30.27,30.10,13,4,22,0.00
2013-2-17,46,33,25,25,21,15,87,65,30,30.21,30.08,8,2,11,0.00
2013-2-18,42,32,24,26,22,17,85,67,35,30.09,29.77,9,1,12,0.00
2013-2-19,43,32,25,27,22,19,85,70,44,29.98,29.70,10,2,13,0.00
2013-2-20,45,32,24,25,22,19,87,67,40,30.08,29.98,9,2,12,0.00
2013-2-21,41,33,25,27,24,22,89,72,47,30.19,30.06,13,4,17,0.00
2013-2-22,44,36,29,34,29,25,91,76,59,30.18,29.88,22,8,29,0.10
2013-2-23,40,30,23,27,22,19,86,72,49,30.41,30.02,14,3,19,0.00
2013-2-24,47,34,23,31,24,19,87,70,44,30.44,30.12,14,4,23,0.00
2013-2-25,43,35,25,33,24,14,90,64,41,30.33,30.04,21,5,28,0.02
2013-2-26,48,35,22,22,20,16,85,57,28,30.40,30.27,12,4,21,0.00
2013-2-27,49,40,33,33,25,18,68,55,47,30.32,30.26,14,4,19,0.00
2013-2-28,55,45,39,42,37,30,84,75,59,30.44,30.24,17,6,22,0.00
2013-3-1,62,49,41,39,35,33,82,62,34,30.47,30.27,12,4,18,0.00
2013-3-2,57,47,39,36,33,28,77,61,37,30.27,30.06,13,4,17,0.01
2013-3-3,44,36,25,32,20,6,85,58,22,30.22,30.05,10,2,13,0.00
2013-3-4,53,34,18,22,18,13,85,58,26,30.25,30.00,7,2,10,0.00
2013-3-5,45,35,27,33,26,20,89,71,53,30.00,29.69,6,1,8,0.00
2013-3-6,41,35,30,36,30,24,92,80,60,29.98,29.52,15,4,22,0.04
2013-3-7,46,35,24,30,25,21,88,70,43,30.07,29.98,10,2,16,0.00
2013-3-8,45,34,26,34,28,23,93,79,48,30.22,30.01,9,1,13,0.01
2013-3-9,55,38,26,27,22,16,81,56,22,30.49,30.22,12,4,15,0.00
2013-3-10,62,44,31,37,27,18,76,57,19,30.49,30.34,15,5,18,0.00
2013-3-11,59,47,39,41,38,35,88,72,47,30.37,30.20,12,3,12,0.00
2013-3-12,65,49,37,41,32,20,91,59,19,30.23,30.09,11,3,14,0.00
2013-3-13,66,53,44,38,32,26,63,46,31,30.17,30.07,12,4,18,0.00
2013-3-14,69,52,40,36,30,19,74,47,17,30.14,30.00,13,4,21,0.00
2013-3-15,60,48,38,40,34,29,82,61,36,30.15,30.08,13,3,14,0.00
2013-3-16,55,42,31,35,31,28,89,66,37,30.12,29.92,17,5,26,0.00
2013-3-17,47,34,26,28,22,18,86,63,35,30.21,30.00,12,2,16,0.00
2013-3-18,54,38,24,28,19,-6,87,56,9,30.26,30.15,8,2,14,0.00
2013-3-19,53,40,28,42,29,20,95,67,35,30.18,29.76,8,1,13,0.11
2013-3-20,49,42,32,42,35,20,90,75,48,30.06,29.59,21,7,29,0.09
2013-3-21,44,33,26,26,22,17,82,64,41,30.24,30.05,19,4,24,0.00
2013-3-22,41,31,24,23,19,15,85,63,35,30.36,30.22,18,4,22,0.00
2013-3-23,46,33,24,23,20,17,81,60,33,30.37,30.25,8,2,12,0.00
2013-3-24,48,36,24,27,23,18,82,61,40,30.28,30.14,7,1,12,0.00
2013-3-25,53,41,29,32,28,24,82,60,42,30.14,29.92,7,2,14,0.00
2013-3-26,51,42,36,39,36,30,90,78,59,29.97,29.92,6,1,11,0.01
2013-3-27,59,44,34,44,38,31,95,80,46,29.98,29.88,11,3,25,0.06
2013-3-28,60,46,40,45,42,38,96,85,49,30.11,29.98,8,1,12,0.31
2013-3-29,62,49,39,48,42,38,96,78,50,30.19,30.11,9,2,15,0.00
2013-3-30,71,53,38,47,41,35,90,67,32,30.19,30.02,9,3,13,0.00
2013-3-31,68,52,37,45,40,34,91,66,36,30.02,29.85,10,2,17,0.00
2013-4-1,64,51,40,45,41,38,93,71,46,30.08,29.89,10,2,15,0.00
2013-4-2,68,50,38,43,39,35,92,68,37,30.14,30.05,10,3,12,0.00
2013-4-3,69,51,36,42,35,28,94,61,22,30.13,29.92,10,3,15,0.00
2013-4-4,65,53,45,44,39,36,77,60,40,29.92,29.65,24,5,30,0.00
2013-4-5,57,47,41,42,38,35,89,73,46,29.93,29.83,16,6,21,0.04
2013-4-6,55,45,39,39,36,31,91,73,46,29.95,29.76,22,7,27,0.03
2013-4-7,48,41,33,38,32,25,89,70,46,29.85,29.62,23,6,29,0.02
2013-4-8,49,38,28,30,26,23,83,64,45,30.26,29.86,13,3,18,0.00
2013-4-9,60,44,28,37,29,15,85,61,18,30.35,30.26,9,3,12,0.00
2013-4-10,61,49,35,47,38,30,83,65,41,30.26,30.04,18,6,27,0.00
2013-4-11,56,41,27,32,28,24,92,64,33,30.22,30.12,10,2,15,0.00
2013-4-12,63,45,30,36,28,11,84,58,13,30.14,29.72,22,6,29,0.00
2013-4-13,50,41,30,35,24,17,76,52,29,30.02,29.71,19,4,36,0.00
2013-4-14,45,34,27,30,24,20,89,66,42,30.04,29.89,9,3,14,0.00
2013-4-15,43,34,29,37,30,27,93,86,58,30.14,29.89,14,2,18,0.18
2013-4-16,44,36,31,34,29,25,93,78,48,30.38,30.14,15,3,20,0.00
2013-4-17,52,38,25,28,24,17,90,60,27,30.49,30.38,13,3,16,0.00
2013-4-18,63,46,31,40,34,26,85,63,40,30.43,30.28,9,3,14,0.00
2013-4-19,59,49,40,42,38,33,80,66,40,30.28,30.08,20,6,24,0.00
2013-4-20,62,47,32,37,33,29,92,63,29,30.24,30.16,10,3,16,0.00
2013-4-21,61,48,37,41,36,28,85,65,38,30.19,30.10,12,4,23,0.00
2013-4-22,56,44,33,36,27,19,85,55,27,30.40,30.19,19,3,20,0.00
2013-4-23,65,45,26,22,15,-1,70,38,7,30.39,30.11,10,3,21,0.00
2013-4-24,69,49,27,24,19,11,69,36,11,30.29,30.02,14,2,14,0.00
2013-4-25,76,57,39,36,29,21,58,37,20,30.09,29.96,17,6,18,0.00
2013-4-26,78,60,44,40,34,21,70,43,14,30.17,30.08,12,4,16,0.00
2013-4-27,72,59,47,38,33,25,63,40,19,30.18,30.06,14,6,22,0.00
2013-4-28,66,53,38,39,32,26,77,47,27,30.12,30.02,19,3,21,0.00
2013-4-29,62,50,35,41,34,25,80,57,33,30.02,29.90,19,6,24,0.00
2013-4-30,54,38,25,27,22,19,83,56,28,30.42,30.01,12,2,17,0.00
2013-5-1,62,46,28,26,21,12,78,44,14,30.53,30.41,12,3,16,0.00
2013-5-2,75,57,34,30,19,-2,65,30,5,30.53,30.21,10,3,17,0.00
2013-5-3,72,57,42,35,30,26,59,38,21,30.23,30.10,21,3,22,0.00
2013-5-4,68,55,37,38,33,30,79,46,27,30.12,29.89,15,4,25,0.00
2013-5-5,74,59,46,40,34,31,57,41,25,29.90,29.70,17,4,21,0.00
2013-5-6,80,63,44,46,37,31,71,41,20,29.78,29.65,9,2,18,0.00
2013-5-7,78,64,50,48,44,32,83,53,19,29.86,29.72,15,5,20,0.00
2013-5-8,81,63,50,50,44,31,83,55,18,30.00,29.86,19,4,27,0.00
2013-5-9,84,63,50,55,47,39,86,61,22,30.06,29.95,13,5,23,0.07
2013-5-10,88,68,51,54,47,40,80,52,19,30.11,30.01,14,4,15,0.00
2013-5-11,89,72,57,55,50,38,77,51,18,30.09,29.90,14,4,18,0.00
2013-5-12,85,69,56,54,50,44,88,55,25,29.96,29.84,19,4,21,0.00
2013-5-13,73,58,43,50,43,36,89,60,37,30.07,29.88,19,4,29,0.00
2013-5-14,68,53,37,42,38,33,89,60,30,30.10,29.98,10,2,15,0.00
2013-5-15,67,51,41,50,41,36,85,70,36,30.04,29.91,12,2,15,0.05
2013-5-16,60,49,39,49,43,36,93,80,54,29.97,29.85,11,2,17,0.06
2013-5-17,61,49,39,43,40,35,92,73,46,30.03,29.90,11,2,15,0.01
2013-5-18,59,46,34,47,38,31,93,74,48,30.24,30.03,13,3,16,0.02
2013-5-19,65,51,37,44,37,34,88,64,33,30.32,30.23,9,3,15,0.00
2013-5-20,77,58,38,44,37,26,85,53,15,30.27,29.82,9,3,13,0.00
2013-5-21,60,49,34,44,34,24,85,58,33,29.86,29.63,19,6,30,0.02
2013-5-22,48,40,32,34,29,23,79,66,55,29.98,29.86,19,7,25,0.00
2013-5-23,60,46,33,35,31,27,83,59,31,29.99,29.92,12,3,16,0.00
2013-5-24,59,48,38,36,33,30,82,60,36,30.01,29.93,12,3,17,0.00
2013-5-25,66,50,34,46,36,30,93,63,30,30.01,29.90,11,2,13,0.03
2013-5-26,63,51,44,48,42,37,95,73,40,29.99,29.88,13,2,17,0.05
2013-5-27,60,50,42,49,42,37,86,74,60,29.96,29.74,16,4,23,0.00
2013-5-28,67,55,43,45,39,34,83,58,33,29.85,29.69,13,4,21,0.02
2013-5-29,61,52,44,46,40,35,93,68,43,29.95,29.60,25,6,27,0.06
2013-5-30,64,48,34,39,35,30,90,62,34,30.18,29.94,13,2,17,0.00
2013-5-31,71,54,35,40,34,25,88,55,19,30.26,30.15,10,2,14,0.00
2013-6-1,78,61,44,47,40,32,77,51,24,30.19,29.91,14,3,17,0.00
2013-6-2,74,58,46,47,41,32,87,58,23,29.97,29.84,14,3,18,0.00
2013-6-3,76,59,42,43,36,30,83,49,20,30.00,29.91,10,2,16,0.00
2013-6-4,81,63,45,44,36,30,66,40,19,30.02,29.93,10,2,14,0.00
2013-6-5,87,70,51,50,43,39,67,43,20,29.98,29.83,11,3,17,0.00
2013-6-6,88,71,56,55,49,43,74,50,22,29.89,29.79,11,3,16,0.00
2013-6-7,85,68,56,55,50,44,84,55,29,29.96,29.85,11,3,17,0.00
2013-6-8,89,69,51,51,42,23,83,46,11,29.97,29.87,10,3,17,0.00
2013-6-9,86,67,50,51,42,32,80,46,15,29.90,29.73,12,2,18,0.00
2013-6-10,78,60,44,40,36,25,77,45,16,29.80,29.66,12,2,17,0.00
2013-6-11,68,53,41,44,37,34,85,58,34,30.04,29.78,12,2,15,0.00
2013-6-12,66,50,35,41,36,31,89,62,34,30.09,30.02,11,3,18,0.00
2013-6-13,56,47,37,50,38,32,94,72,51,30.24,30.09,16,3,20,0.18
2013-6-14,72,56,38,42,35,29,89,53,21,30.23,29.95,8,2,12,0.00
2013-6-15,83,63,44,49,40,31,74,47,16,29.95,29.77,19,3,19,0.00
2013-6-16,82,64,52,60,48,41,80,58,23,29.99,29.83,13,3,19,0.07
2013-6-17,80,62,48,54,47,42,86,61,29,29.99,29.78,11,3,16,0.01
2013-6-18,63,54,46,52,45,39,89,73,49,29.88,29.78,12,2,19,0.11
2013-6-19,59,49,40,48,41,37,93,75,49,30.04,29.85,9,1,12,0.16
2013-6-20,63,50,37,42,38,34,89,64,37,30.08,29.99,12,2,17,0.00
2013-6-21,63,52,41,45,41,37,86,68,44,30.11,30.06,9,2,13,0.01
2013-6-22,77,60,42,48,43,38,86,56,28,30.09,29.82,9,3,14,0.00
2013-6-23,64,58,54,57,52,45,94,82,60,29.82,29.59,7,1,9,0.24
2013-6-24,61,54,49,53,50,47,95,86,66,29.69,29.58,9,2,14,0.10
2013-6-25,65,57,50,56,49,47,92,78,61,29.84,29.68,15,2,20,0.05
2013-6-26,70,59,50,62,53,47,91,82,64,30.02,29.83,8,2,10,0.12
2013-6-27,86,67,50,59,53,48,95,67,34,30.09,30.01,11,2,21,0.00
2013-6-28,92,74,56,61,56,53,89,60,30,30.09,29.89,11,2,17,0.00
2013-6-29,89,75,61,63,58,54,85,58,34,29.94,29.83,10,2,14,0.00
2013-6-30,96,77,58,62,56,52,83,53,27,29.91,29.73,9,2,17,0.00
2013-7-1,96,82,67,63,58,55,71,47,27,29.86,29.75,13,2,16,0.00
2013-7-2,100,82,68,65,59,48,80,51,20,29.88,29.78,12,3,15,0.00
2013-7-3,93,77,62,63,56,44,87,53,29,29.89,29.79,14,2,20,0.00
2013-7-4,86,69,53,49,44,34,76,45,18,29.88,29.77,13,2,18,0.00
2013-7-5,81,64,50,46,40,31,83,45,22,29.84,29.75,12,2,19,0.00
2013-7-6,84,62,44,48,37,32,72,45,16,29.84,29.71,11,2,16,0.00
2013-7-7,88,70,52,53,46,39,75,48,20,29.79,29.67,11,2,19,0.00
2013-7-8,87,67,52,51,44,33,83,51,17,29.95,29.79,10,2,13,0.00
2013-7-9,95,75,56,54,48,39,69,43,15,29.97,29.81,15,3,18,0.00
2013-7-10,92,75,61,58,49,38,70,45,19,29.88,29.69,11,3,16,0.00
2013-7-11,84,67,51,52,46,42,79,50,23,29.82,29.73,11,2,20,0.00
2013-7-12,81,63,50,46,40,28,79,49,16,29.95,29.78,14,3,18,0.00
2013-7-13,79,63,45,43,36,28,77,43,19,30.04,29.94,10,2,14,0.00
2013-7-14,90,70,48,48,38,28,58,34,16,30.03,29.82,13,3,18,0.00
2013-7-15,87,70,54,49,42,36,68,41,18,29.88,29.70,12,3,16,0.00
2013-7-16,84,71,61,50,41,34,51,34,23,29.83,29.70,12,3,16,0.00
2013-7-17,91,73,59,47,42,34,60,36,14,30.00,29.83,11,4,17,0.00
2013-7-18,93,74,56,51,42,32,62,38,13,30.02,29.87,12,3,18,0.00
2013-7-19,93,74,55,52,38,25,68,34,11,29.96,29.81,12,2,16,0.00
2013-7-20,94,74,59,52,39,18,70,36,8,29.87,29.74,11,3,19,0.00
2013-7-21,97,74,57,50,40,19,69,37,6,29.79,29.70,9,3,15,0.00
2013-7-22,95,74,57,46,39,22,62,34,8,29.86,29.77,11,3,15,0.00
2013-7-23,98,75,60,51,42,32,64,36,10,29.88,29.77,12,3,16,0.00
2013-7-24,91,75,61,51,43,24,61,36,10,29.89,29.82,7,2,13,0.00
2013-7-25,98,78,62,52,41,26,58,32,9,29.92,29.83,14,3,16,0.01
2013-7-26,96,78,62,47,38,29,45,26,10,29.95,29.83,14,3,21,0.00
2013-7-27,88,70,56,46,39,26,61,36,11,29.95,29.80,11,3,16,0.00
2013-7-28,84,66,51,46,39,27,72,43,16,29.85,29.76,12,3,18,0.00
2013-7-29,84,67,51,49,43,35,73,47,18,29.89,29.77,9,3,16,0.00
2013-7-30,87,68,47,49,41,24,89,46,11,30.00,29.89,11,2,16,0.00
2013-7-31,81,67,58,54,46,35,84,50,20,29.98,29.83,13,2,19,0.00
2013-8-1,73,60,50,58,50,44,94,71,41,29.98,29.85,10,3,15,0.01
2013-8-2,77,60,46,51,44,36,86,59,24,30.04,29.95,10,3,17,0.00
2013-8-3,84,66,49,51,43,34,82,50,17,30.02,29.88,10,3,15,0.02
2013-8-4,88,71,54,53,46,41,76,46,20,29.94,29.78,10,3,17,0.00
2013-8-5,88,72,58,54,47,36,66,45,17,29.88,29.77,10,3,17,0.00
2013-8-6,91,74,57,54,46,38,71,43,17,29.89,29.76,9,3,18,0.00
2013-8-7,83,70,57,51,45,39,63,43,22,29.90,29.79,15,3,23,0.00
2013-8-8,85,70,56,52,46,40,70,46,22,29.88,29.77,15,3,15,0.00
2013-8-9,85,68,55,62,51,45,84,57,26,29.85,29.70,25,3,27,0.07
2013-8-10,78,62,52,54,50,47,84,66,38,29.97,29.83,11,3,14,0.00
2013-8-11,84,65,53,52,49,44,81,59,26,29.98,29.86,14,4,19,0.00
2013-8-12,86,67,53,56,50,46,85,58,26,29.94,29.83,14,3,17,0.00
2013-8-13,86,70,55,54,49,44,81,52,23,29.96,29.82,13,3,16,0.00
2013-8-14,90,71,58,54,49,43,71,49,20,29.88,29.74,11,4,20,0.00
2013-8-15,91,70,57,54,50,41,74,53,18,29.86,29.74,15,3,19,0.00
2013-8-16,86,70,58,60,55,49,81,61,29,29.92,29.82,12,2,17,0.00
2013-8-17,85,70,58,59,54,50,85,61,34,29.96,29.83,10,2,14,0.00
2013-8-18,88,69,54,56,50,42,85,56,22,30.00,29.89,11,3,14,0.00
2013-8-19,89,71,56,54,50,44,80,52,23,29.97,29.84,11,3,15,0.00
2013-8-20,83,67,51,51,38,12,83,44,7,29.97,29.87,9,2,14,0.00
2013-8-21,84,69,53,48,39,33,63,36,19,29.94,29.83,8,2,11,0.00
2013-8-22,81,65,57,57,49,38,82,58,34,29.88,29.78,17,3,24,0.03
2013-8-23,82,66,55,56,50,48,81,59,31,29.83,29.71,12,4,18,0.00
2013-8-24,80,62,50,57,51,47,91,70,35,29.81,29.67,10,1,14,0.03
2013-8-25,73,58,51,62,53,49,94,83,53,29.90,29.71,15,1,37,0.47
2013-8-26,73,60,49,56,50,45,96,73,40,29.91,29.86,12,2,16,0.01
2013-8-27,83,64,50,55,49,40,87,63,22,29.90,29.69,8,2,15,0.00
2013-8-28,85,69,55,56,50,42,85,57,23,29.80,29.71,11,4,17,0.00
2013-8-29,80,68,58,54,51,46,83,59,31,29.96,29.77,14,4,20,0.00
2013-8-30,83,66,52,56,52,45,92,63,28,30.04,29.90,9,2,17,0.00
2013-8-31,87,69,53,56,52,46,90,59,25,29.97,29.75,8,2,12,0.00
2013-9-1,90,72,57,55,46,29,80,48,11,29.78,29.61,19,4,19,0.00
2013-9-2,85,67,56,55,51,38,82,61,19,29.81,29.66,12,2,16,0.00
2013-9-3,83,65,53,54,50,35,89,63,18,29.89,29.79,12,3,20,0.00
2013-9-4,84,65,52,54,48,37,86,61,19,29.92,29.82,11,3,16,0.00
2013-9-5,74,58,50,54,48,43,91,71,40,29.99,29.78,19,3,31,0.01
2013-9-6,72,59,51,52,48,45,87,69,47,30.07,29.99,13,4,20,0.01
2013-9-7,79,62,46,53,48,43,92,66,34,30.07,29.89,9,2,15,0.00
2013-9-8,76,62,51,54,49,46,86,65,37,29.99,29.95,10,2,15,0.00
2013-9-9,83,66,52,54,45,38,75,52,21,29.99,29.85,13,4,14,0.00
2013-9-10,85,68,54,53,46,43,74,49,23,29.90,29.80,10,3,14,0.00
2013-9-11,87,70,54,55,47,44,75,49,23,29.94,29.84,9,2,12,0.00
2013-9-12,89,72,54,54,47,40,72,45,20,29.90,29.77,11,2,13,0.00
2013-9-13,81,69,60,54,48,42,72,48,26,29.82,29.68,12,3,12,0.00
2013-9-14,87,71,58,55,49,45,69,50,23,29.75,29.63,13,4,13,0.00
2013-9-15,89,69,54,55,46,29,80,51,12,29.72,29.50,15,3,21,0.00
2013-9-16,71,59,50,50,46,44,83,64,44,29.81,29.72,12,3,17,0.00
2013-9-17,58,51,44,51,45,40,89,80,64,29.95,29.72,16,1,20,0.02
2013-9-18,64,51,42,44,39,34,92,68,35,30.07,29.95,10,2,11,0.00
2013-9-19,78,58,40,44,37,30,84,53,19,30.04,29.78,9,2,17,0.00
2013-9-20,78,58,44,47,40,33,75,55,20,29.79,29.51,15,5,19,0.00
2013-9-21,64,53,44,49,43,40,94,70,45,29.72,29.59,10,3,20,0.21
2013-9-22,60,50,43,48,43,41,93,77,58,29.84,29.69,17,6,29,0.01
2013-9-23,65,55,49,48,43,39,80,64,46,29.93,29.82,15,4,26,0.00
2013-9-24,55,48,41,46,42,38,89,79,57,29.90,29.79,12,2,17,0.10
2013-9-25,52,44,36,40,37,32,90,78,56,29.98,29.78,13,2,15,0.02
2013-9-26,54,43,34,41,35,31,91,76,53,30.17,29.98,16,2,16,0.00
2013-9-27,64,48,35,45,38,32,88,71,33,30.17,30.00,18,7,21,0.01
2013-9-28,64,55,49,50,46,43,93,73,52,30.00,29.53,27,8,35,0.35
2013-9-29,51,46,42,49,43,39,95,90,77,29.71,29.51,17,5,29,0.68
2013-9-30,54,45,36,49,38,33,95,77,59,30.00,29.56,18,5,26,0.04
2013-10-1,53,43,33,42,35,29,88,74,49,30.19,29.98,16,4,22,0.00
2013-10-2,50,40,30,36,32,28,92,77,46,30.19,30.05,8,2,11,0.02
2013-10-3,51,39,32,36,33,29,94,79,53,30.46,30.15,11,2,14,0.00
2013-10-4,58,44,32,36,32,27,90,67,31,30.54,30.41,11,3,12,0.00
2013-10-5,71,50,34,39,32,26,80,54,19,30.42,30.21,10,3,15,0.00
2013-10-6,76,55,39,41,34,30,72,49,21,30.21,29.94,14,3,18,0.00
2013-10-7,57,47,35,42,34,27,87,60,46,30.07,29.91,17,3,27,0.00
2013-10-8,50,41,34,42,36,31,92,82,58,30.09,29.93,12,2,15,0.08
2013-10-9,44,39,35,37,35,33,95,86,74,30.06,29.98,9,2,15,0.02
2013-10-10,58,44,35,39,34,32,89,73,45,30.06,29.94,11,3,15,0.00
2013-10-11,54,43,33,39,35,30,89,74,51,30.12,30.04,9,3,11,0.00
2013-10-12,48,41,34,39,35,31,90,80,63,30.15,30.02,11,2,11,0.00
2013-10-13,51,43,35,40,37,32,92,80,58,30.31,30.14,8,1,11,0.00
2013-10-14,55,41,32,38,33,29,93,74,46,30.41,30.31,11,2,14,0.00
2013-10-15,60,42,28,36,30,25,89,67,34,30.42,30.20,7,1,9,0.00
2013-10-16,64,46,35,33,30,27,74,56,27,30.20,30.09,11,3,15,0.00
2013-10-17,60,45,35,38,33,30,83,66,36,30.26,30.18,10,3,13,0.00
2013-10-18,62,46,35,40,35,30,85,68,37,30.28,30.17,10,3,12,0.00
2013-10-19,74,52,39,38,34,26,82,55,18,30.19,30.07,11,4,17,0.00
2013-10-20,69,51,39,38,34,30,71,54,28,30.15,30.08,12,3,15,0.00
2013-10-21,69,52,39,41,36,31,77,57,30,30.17,30.08,13,4,15,0.00
2013-10-22,69,51,38,43,37,32,81,63,32,30.15,30.03,12,3,14,0.00
2013-10-23,68,50,39,43,38,33,80,65,35,30.08,30.00,11,3,16,0.00
2013-10-24,68,50,39,44,39,34,85,69,33,30.11,30.01,11,3,13,0.00
2013-10-25,70,52,41,44,37,33,80,61,25,30.22,30.11,12,4,15,0.00
2013-10-26,69,50,38,42,36,31,78,61,27,30.24,30.07,12,4,17,0.00
2013-10-27,53,41,38,43,36,30,96,84,43,30.09,29.71,17,4,22,0.23
2013-10-28,40,34,30,39,30,23,96,84,70,29.98,29.76,15,4,24,0.04
2013-10-29,45,34,25,29,24,21,86,69,44,30.10,29.98,7,1,10,0.00
2013-10-30,57,41,29,36,31,25,89,70,38,30.18,30.09,10,3,13,0.00
2013-10-31,64,50,42,49,42,35,85,73,56,30.22,30.12,12,4,18,0.00
2013-11-1,57,46,37,46,41,36,94,83,65,30.24,29.94,12,4,17,0.00
2013-11-2,48,43,33,42,34,26,89,73,46,30.04,29.74,21,5,32,0.02
2013-11-3,44,37,33,31,28,26,83,72,50,30.13,30.01,16,3,16,0.00
2013-11-4,50,40,35,34,31,29,81,72,47,30.18,30.09,11,3,16,0.00
2013-11-5,51,45,39,43,39,32,87,79,72,30.22,30.11,18,7,22,0.00
2013-11-6,57,49,42,47,44,40,92,83,68,30.27,30.10,15,3,18,0.00
2013-11-7,54,44,37,46,38,29,93,79,57,30.10,29.84,18,4,37,0.07
2013-11-8,46,39,32,34,31,29,89,74,54,30.18,30.09,11,3,16,0.00
2013-11-9,53,40,29,38,33,26,92,77,50,30.14,30.07,13,2,20,0.00
2013-11-10,63,46,35,42,38,33,92,74,37,30.16,30.07,12,2,17,0.00
2013-11-11,42,38,33,38,36,31,95,91,83,30.27,30.15,4,0,8,0.01
2013-11-12,58,45,36,47,40,34,95,83,56,30.39,30.24,17,2,22,0.02
2013-11-13,56,42,33,41,35,28,95,77,42,30.44,30.26,7,2,12,0.00
2013-11-14,47,37,29,32,28,25,87,69,44,30.25,30.05,14,4,17,0.00
2013-11-15,44,36,29,31,27,25,87,73,55,30.07,29.58,21,6,28,0.00
2013-11-16,46,41,37,32,30,26,75,65,48,29.82,29.51,27,6,32,0.00
2013-11-17,48,40,35,34,31,29,79,69,55,30.02,29.82,19,6,26,0.00
2013-11-18,50,43,39,38,33,29,85,68,54,30.01,29.78,20,6,26,0.00
2013-11-19,49,44,40,45,40,36,91,84,75,29.81,29.74,18,7,25,0.04
2013-11-20,42,30,19,38,20,0,91,68,43,30.43,29.82,10,3,14,0.01
2013-11-21,32,20,12,8,4,0,71,50,29,30.77,30.43,6,1,9,0.00
2013-11-22,36,22,13,13,10,6,81,62,36,30.81,30.70,8,2,12,0.00
2013-11-23,37,22,12,18,14,8,88,70,45,30.70,30.43,8,1,8,0.00
2013-11-24,55,34,18,22,18,12,86,58,18,30.43,30.30,14,3,18,0.00
2013-11-25,53,35,25,24,21,19,80,58,28,30.41,30.34,11,2,12,0.00
2013-11-26,49,33,24,25,22,19,83,66,33,30.36,30.21,5,1,7,0.00
2013-11-27,45,34,25,28,24,21,84,69,48,30.21,30.07,8,1,10,0.00
2013-11-28,53,35,23,31,26,19,90,70,41,30.25,30.15,12,2,15,0.00
2013-11-29,57,42,33,32,28,25,75,58,34,30.31,30.23,15,5,19,0.00
2013-11-30,55,45,38,39,36,32,84,70,52,30.34,30.24,14,4,18,0.00
2013-12-1,55,50,44,45,40,35,83,69,55,30.24,29.82,26,10,39,0.00
2013-12-2,50,36,25,38,30,20,93,79,62,29.95,29.73,15,4,19,0.12
2013-12-3,28,22,15,24,16,8,89,78,66,30.29,29.94,12,2,16,0.01
2013-12-4,21,13,6,8,4,0,81,69,51,30.42,30.28,10,1,11,0.00
2013-12-5,25,13,4,10,5,-1,84,72,50,30.41,30.26,10,2,11,0.00
2013-12-6,13,10,9,8,7,5,88,84,80,30.29,30.08,9,2,14,0.14
2013-12-7,9,4,-6,5,-1,-10,84,79,66,30.54,30.14,15,4,18,0.01
2013-12-8,20,6,-8,13,1,-12,88,78,63,30.76,30.55,16,5,19,0.00
2013-12-9,31,17,7,21,10,2,89,75,60,30.75,30.55,18,5,22,0.00
2013-12-10,39,27,15,27,20,11,90,75,58,30.56,30.44,15,6,19,0.00
2013-12-11,42,28,14,29,22,11,95,78,57,30.46,30.35,10,2,15,0.00
2013-12-12,43,34,25,31,25,19,84,70,52,30.34,30.17,22,5,26,0.00
2013-12-13,49,38,32,36,32,28,91,80,60,30.46,30.23,11,4,17,0.00
2013-12-14,46,38,31,33,31,28,89,74,58,30.48,30.42,16,5,22,0.00
2013-12-15,56,44,35,38,30,25,87,60,37,30.44,30.33,17,5,18,0.00
2013-12-16,53,40,33,35,29,24,82,65,32,30.43,30.32,16,4,18,0.00
2013-12-17,57,44,38,32,26,24,63,51,33,30.32,30.08,16,3,19,0.00
2013-12-18,42,38,30,33,29,25,92,71,55,30.08,29.90,11,3,16,0.00
2013-12-19,31,26,20,27,17,12,88,69,48,30.27,29.99,9,2,13,0.00
2013-12-20,45,34,22,38,26,11,85,73,50,30.21,29.89,13,5,20,0.04
2013-12-21,52,42,33,36,33,30,90,71,45,30.16,29.90,16,3,22,0.00
2013-12-22,53,45,39,40,35,31,82,70,50,30.32,30.14,11,3,15,0.00
2013-12-23,56,45,33,42,33,25,87,62,44,30.44,30.21,22,6,24,0.00
2013-12-24,49,36,28,32,28,23,90,74,44,30.54,30.44,8,2,14,0.00
2013-12-25,52,40,33,31,27,24,78,63,34,30.52,30.40,12,3,17,0.00
2013-12-26,56,41,31,31,26,23,76,56,38,30.40,30.27,14,3,20,0.00
2013-12-27,50,40,32,30,25,23,74,56,41,30.30,30.16,16,4,20,0.00
2013-12-28,46,34,27,26,21,17,74,61,31,30.50,30.29,11,4,14,0.00
2013-12-29,48,36,27,23,18,15,72,51,29,30.49,30.32,12,5,18,0.00
2013-12-30,46,41,34,27,22,16,62,47,30,30.32,30.18,12,3,18,0.00
2013-12-31,52,44,37,28,24,20,61,44,30,30.30,30.20,11,3,14,0.00
2014-1-1,53,39,32,36,29,24,84,69,51,30.37,30.28,14,3,15,0.00
2014-1-2,60,45,34,35,30,28,81,60,38,30.31,30.01,18,5,26,0.00